首页
METAR-TAF:

METAR-TAF

机场 :

巴查·汗国际机场

白沙瓦, 巴基斯坦

纬度: 34-01N, 经度: 071-35E, 海拔: 359米

当前天气观测

该预报发布于40分钟前的17:30 UTC
风速10节,风向西
温度 30°C
湿度 40%
气压
能見度: 8000
少量云层高于4000英尺
散云层高于10000英尺

METAR: OPPS 181730Z 27010KT 8000 FEW040 SCT100 30/15 Q996

时间: 23:10 (18:10 UTC)

预报

该预报发布于1小时和10分钟前的17:00 UTC
预报有效从18日的 18点(UTC)到 19日的 24点(UTC)
风速8节,风向西北
能見度: 6000
少量云层高于8000英尺
短暂存在
从 19日的 09点(UTC)到 19日的 13点(UTC)
风速10节,风向西北,有时为20节阵风
能見度: 4000
散云层高于10000英尺
低吹尘,

TAF: OPPS 181700Z 1818/1924 31008KT 6000 FEW080 TEMPO 1909/1913 31010G20KT 4000 DRDU SCT100

超过4000个机场的气象观测和天气预报(METAR&TAF报告)。

可查询的气象台以黄色和红色小点在地图上表示。

将鼠标移到小点上方,可查看气象台名称。

然后点击查看天气观测和预报。

如需切换地图:点击带黑十字的绿色按钮放大地图;点击带横线的绿色按钮缩小地图;或者点击绿色箭头查看邻近地区的地图。


METAR-TAF: